createdAt,value
2023-01-13T00:02:51.649Z,5.10
2023-01-13T00:05:58.713Z,9.00
2023-01-13T00:09:03.600Z,11.18
2023-01-13T00:12:08.285Z,14.20
2023-01-13T00:15:13.441Z,10.27
2023-01-13T00:18:17.603Z,12.68
2023-01-13T00:24:28.425Z,13.25
2023-01-13T00:27:33.791Z,11.25
2023-01-13T00:30:38.498Z,12.10
2023-01-13T00:33:43.372Z,13.52
2023-01-13T00:36:47.733Z,12.00
2023-01-13T00:39:52.695Z,10.23
2023-01-13T00:43:15.370Z,23.60
2023-01-13T00:46:21.808Z,19.00
2023-01-13T00:49:26.326Z,12.27
2023-01-13T00:52:33.577Z,17.88
2023-01-13T00:55:37.986Z,19.65
2023-01-13T00:58:46.007Z,11.15
2023-01-13T01:01:50.708Z,17.90
2023-01-13T01:04:54.839Z,11.98
2023-01-13T01:07:59.030Z,16.55
2023-01-13T01:11:10.580Z,12.13
2023-01-13T01:14:15.139Z,9.40
2023-01-13T01:17:19.583Z,8.93
2023-01-13T01:20:24.166Z,13.70
2023-01-13T01:23:30.137Z,10.52
2023-01-13T01:26:34.468Z,14.88
2023-01-13T01:29:38.610Z,16.13
2023-01-13T01:32:42.800Z,12.40
2023-01-13T01:35:47.947Z,9.75
2023-01-13T01:38:52.557Z,16.80
2023-01-13T01:42:15.734Z,9.43
2023-01-13T01:45:24.501Z,12.52
2023-01-13T01:48:35.065Z,19.92
2023-01-13T01:51:56.017Z,20.85
2023-01-13T01:55:10.635Z,22.20
2023-01-13T01:58:27.163Z,15.13
2023-01-13T02:01:34.223Z,17.02
2023-01-13T02:04:42.981Z,21.23
2023-01-13T02:07:51.519Z,14.45
2023-01-13T02:10:56.163Z,19.95
2023-01-13T02:14:00.437Z,16.45
2023-01-13T02:17:30.838Z,18.60
2023-01-13T02:21:16.614Z,15.02
2023-01-13T02:25:21.080Z,16.15
2023-01-13T02:29:06.695Z,28.77
2023-01-13T02:32:29.990Z,19.25
2023-01-13T02:35:49.462Z,18.05
2023-01-13T02:40:12.846Z,15.48
2023-01-13T02:43:57.485Z,19.88
2023-01-13T02:47:25.298Z,25.00
2023-01-13T02:50:39.445Z,26.80
2023-01-13T02:53:52.247Z,28.38
2023-01-13T02:57:00.760Z,21.52
2023-01-13T03:00:07.927Z,20.63
2023-01-13T03:03:12.464Z,26.52
2023-01-13T03:06:16.896Z,34.08
2023-01-13T03:13:14.433Z,31.35
2023-01-13T03:16:43.440Z,20.75
2023-01-13T03:20:19.154Z,29.77
2023-01-13T03:23:33.252Z,26.85
2023-01-13T03:26:51.843Z,29.35
2023-01-13T03:30:24.381Z,39.38
2023-01-13T03:33:55.595Z,43.88
2023-01-13T03:37:05.788Z,29.90
2023-01-13T03:40:22.252Z,32.97
2023-01-13T03:43:59.823Z,33.28
2023-01-13T03:47:30.181Z,45.67
2023-01-13T03:50:47.534Z,30.30
2023-01-13T03:54:05.109Z,40.25
2023-01-13T03:57:13.908Z,30.08
2023-01-13T04:00:23.222Z,45.78
2023-01-13T04:03:42.311Z,36.85
2023-01-13T04:07:42.383Z,38.22
2023-01-13T04:11:11.959Z,42.33
2023-01-13T04:14:19.871Z,36.00
2023-01-13T04:17:24.695Z,32.67
2023-01-13T04:20:29.109Z,49.33
2023-01-13T04:23:34.002Z,34.78
2023-01-13T04:26:38.269Z,41.65
2023-01-13T04:29:42.684Z,28.35
2023-01-13T04:32:47.275Z,35.35
2023-01-13T04:35:52.755Z,22.48
2023-01-13T04:38:56.895Z,43.38
2023-01-13T04:42:02.495Z,26.95
2023-01-13T04:45:10.175Z,39.00
2023-01-13T04:48:14.601Z,37.03
2023-01-13T04:51:19.224Z,37.58
2023-01-13T04:54:23.662Z,35.05
2023-01-13T04:57:28.647Z,37.70
2023-01-13T05:00:33.414Z,37.15
2023-01-13T05:03:37.896Z,30.42
2023-01-13T05:06:42.597Z,26.98
2023-01-13T05:09:47.438Z,41.90
2023-01-13T05:13:10.556Z,36.53
2023-01-13T05:16:40.286Z,34.80
2023-01-13T05:20:22.850Z,40.42
2023-01-13T05:23:47.895Z,30.40
2023-01-13T05:26:55.450Z,24.08
2023-01-13T05:30:04.652Z,34.30
2023-01-13T05:33:18.181Z,36.38
2023-01-13T05:36:29.174Z,30.52
2023-01-13T05:39:52.591Z,29.00
2023-01-13T05:43:20.187Z,35.10
2023-01-13T05:46:24.796Z,31.25
2023-01-13T05:49:29.308Z,30.83
2023-01-13T05:52:33.845Z,34.80
2023-01-13T05:55:40.997Z,34.80
2023-01-13T05:58:46.065Z,44.67
2023-01-13T06:01:50.754Z,29.08
2023-01-13T06:04:56.342Z,50.90
2023-01-13T06:08:03.230Z,42.13
2023-01-13T06:11:08.006Z,35.55
2023-01-13T06:14:12.422Z,30.52
2023-01-13T06:17:17.084Z,20.33
2023-01-13T06:20:27.267Z,40.92
2023-01-13T06:23:35.038Z,33.25
2023-01-13T06:26:41.394Z,42.88
2023-01-13T06:29:45.839Z,40.80
2023-01-13T06:32:54.701Z,33.22
2023-01-13T06:36:06.021Z,38.63
2023-01-13T06:39:16.114Z,33.13
2023-01-13T06:42:41.865Z,33.90
2023-01-13T06:45:56.534Z,31.60
2023-01-13T06:49:26.920Z,36.45
2023-01-13T06:52:46.443Z,37.78
2023-01-13T06:56:22.658Z,24.05
2023-01-13T06:59:40.678Z,25.40
2023-01-13T07:03:14.137Z,41.42
2023-01-13T07:06:28.651Z,30.15
2023-01-13T14:00:11.407Z,15.95
2023-01-13T14:07:26.542Z,17.40
2023-01-13T14:10:40.226Z,14.00
2023-01-13T14:13:47.391Z,11.70
2023-01-13T14:16:56.116Z,26.88
2023-01-13T14:20:05.861Z,9.32
2023-01-13T14:23:40.093Z,13.13
2023-01-13T14:27:24.718Z,14.43
2023-01-13T14:30:35.667Z,8.98
2023-01-13T14:34:32.126Z,15.85
2023-01-13T14:37:56.627Z,16.15
2023-01-13T14:41:41.555Z,17.02
2023-01-13T14:45:02.673Z,23.42
2023-01-13T14:48:27.112Z,17.60
2023-01-13T14:51:50.474Z,10.82
2023-01-13T14:55:36.699Z,17.08
2023-01-13T14:59:44.633Z,13.80
2023-01-13T15:03:53.128Z,13.32
2023-01-13T15:12:18.285Z,10.43
2023-01-13T15:15:37.613Z,10.68
2023-01-13T15:26:44.846Z,14.38
2023-01-13T16:17:15.139Z,14.77
2023-01-13T16:20:36.711Z,27.03
2023-01-13T16:24:00.882Z,10.30
2023-01-13T16:28:11.781Z,15.90
2023-01-13T16:37:17.667Z,12.45
2023-01-13T16:57:28.681Z,11.75
2023-01-13T17:01:25.870Z,18.40
2023-01-13T17:04:39.153Z,17.80
2023-01-13T17:11:48.131Z,25.25
2023-01-13T17:24:58.831Z,23.00
2023-01-13T17:32:56.684Z,35.90
2023-01-13T17:40:41.120Z,26.75
2023-01-13T17:44:11.545Z,31.35
2023-01-13T17:48:20.892Z,30.75
2023-01-13T17:59:41.315Z,27.70
2023-01-13T18:03:01.749Z,20.48
2023-01-13T18:06:29.323Z,26.20
2023-01-13T18:13:45.913Z,27.95
2023-01-13T18:17:21.030Z,22.25
2023-01-13T18:20:53.904Z,15.75
2023-01-13T18:24:19.021Z,26.45
2023-01-13T18:27:38.872Z,12.05
2023-01-13T18:31:12.834Z,21.02
2023-01-13T18:34:23.398Z,24.45
2023-01-13T18:37:59.176Z,15.52
2023-01-13T18:41:31.739Z,21.17
2023-01-13T18:44:50.763Z,30.23
2023-01-13T18:48:22.837Z,25.65
2023-01-13T18:51:32.995Z,26.73
2023-01-13T18:54:40.745Z,29.40
2023-01-13T18:58:04.643Z,37.60
2023-01-13T19:06:20.721Z,33.85
2023-01-13T19:14:49.357Z,24.25
2023-01-13T19:18:31.010Z,35.75
2023-01-13T19:26:40.250Z,32.92
2023-01-13T19:30:03.609Z,29.90
2023-01-13T19:33:14.459Z,31.27
2023-01-13T19:36:29.767Z,39.75
2023-01-13T19:39:38.425Z,30.30
2023-01-13T19:43:17.130Z,30.25
2023-01-13T19:46:31.342Z,23.73
2023-01-13T19:49:41.897Z,24.92
2023-01-13T19:52:49.371Z,29.67
2023-01-13T19:55:57.669Z,23.15
2023-01-13T19:59:19.541Z,19.35
2023-01-13T20:02:31.979Z,35.95
2023-01-13T20:05:46.281Z,23.13
2023-01-13T20:09:02.109Z,23.23
2023-01-13T20:16:27.304Z,28.95
2023-01-13T20:20:19.551Z,26.65
2023-01-13T20:24:05.606Z,24.08
2023-01-13T20:27:55.675Z,23.50
2023-01-13T20:31:22.840Z,29.38
2023-01-13T20:40:05.483Z,30.92
2023-01-13T20:59:32.792Z,27.00
2023-01-13T21:03:01.772Z,31.65
2023-01-13T21:06:47.564Z,25.23
2023-01-13T21:10:28.477Z,38.55
2023-01-13T21:14:02.456Z,30.45
2023-01-13T21:18:04.853Z,31.73
2023-01-13T21:21:35.272Z,36.70
2023-01-13T21:24:50.346Z,33.03
2023-01-13T21:28:21.968Z,42.00
2023-01-13T21:31:48.868Z,29.13
2023-01-13T21:38:47.640Z,34.13
2023-01-13T21:42:50.229Z,43.72
2023-01-13T21:46:33.140Z,37.17
2023-01-13T21:54:38.016Z,33.63
2023-01-13T21:58:35.785Z,31.40
2023-01-13T22:02:23.240Z,37.60
2023-01-13T22:05:38.224Z,23.65
2023-01-13T22:09:12.821Z,26.52
2023-01-13T22:13:26.964Z,39.70
2023-01-13T22:20:45.918Z,27.67
2023-01-13T22:23:59.390Z,18.13
2023-01-13T22:27:26.094Z,30.27
2023-01-13T22:30:37.944Z,24.83
2023-01-13T22:38:48.687Z,17.90
2023-01-13T22:42:33.044Z,25.25
2023-01-13T22:58:43.347Z,29.65
2023-01-13T23:02:36.486Z,33.05
